Terminal Aerodrome Forecast
Issued by NWS

Home | Current Version | Previous Version | Text Only | Print | Product List | Glossary On
Versions: 1 2 3 4 5 6 7 8 9 10 11 12 13 14 15 16 17 18 19 20 21 22 23 24 25 26 27 28 29 30 31 32 33 34 35 36 37 38 39 40 41 42
000
FTUS43 KDTX 032044 AAA
TAFPTK
TAF AMD
KPTK 032044Z 0321/0418 20005KT P6SM SCT045 BKN120
      TEMPO 0323/0403 1SM TSRA BKN035CB BKN050
     FM040300 VRB03KT P6SM SCT045 BKN100
     FM040400 VRB03KT 4SM BR BKN100
     FM040700 00000KT 3/4SM BR SCT100
     FM041300 23003KT 6SM BR SCT250
     FM041600 23005KT P6SM BKN035=

USA.gov is the U.S. government's official web portal to all federal, state and local government web resources and services.